sensor_id;sensor_type;location;lat;lon;timestamp;temperature;humidity
6520;DHT22;3293;51.690;5.982;2023-10-19T00:02:50;10.90;99.90
6520;DHT22;3293;51.690;5.982;2023-10-19T00:07:53;10.90;99.90
6520;DHT22;3293;51.690;5.982;2023-10-19T00:12:57;11.00;99.90
6520;DHT22;3293;51.690;5.982;2023-10-19T00:18:00;11.00;99.90
6520;DHT22;3293;51.690;5.982;2023-10-19T00:23:06;11.00;99.90
6520;DHT22;3293;51.690;5.982;2023-10-19T00:28:06;10.90;99.90
6520;DHT22;3293;51.690;5.982;2023-10-19T00:33:06;11.00;99.90
6520;DHT22;3293;51.690;5.982;2023-10-19T00:38:16;11.00;99.90
6520;DHT22;3293;51.690;5.982;2023-10-19T00:43:41;11.00;99.90
6520;DHT22;3293;51.690;5.982;2023-10-19T00:48:55;11.00;99.90
6520;DHT22;3293;51.690;5.982;2023-10-19T00:54:16;11.10;99.90
6520;DHT22;3293;51.690;5.982;2023-10-19T00:59:22;11.10;99.90
6520;DHT22;3293;51.690;5.982;2023-10-19T01:04:23;11.10;99.90
6520;DHT22;3293;51.690;5.982;2023-10-19T01:09:25;11.20;99.90
6520;DHT22;3293;51.690;5.982;2023-10-19T01:14:27;11.20;99.90
6520;DHT22;3293;51.690;5.982;2023-10-19T01:19:27;11.30;99.90
6520;DHT22;3293;51.690;5.982;2023-10-19T01:24:27;11.40;99.90
6520;DHT22;3293;51.690;5.982;2023-10-19T01:29:41;11.40;99.90
6520;DHT22;3293;51.690;5.982;2023-10-19T01:34:41;11.40;99.90
6520;DHT22;3293;51.690;5.982;2023-10-19T01:39:41;11.50;99.90
6520;DHT22;3293;51.690;5.982;2023-10-19T01:44:45;11.50;99.90
6520;DHT22;3293;51.690;5.982;2023-10-19T01:49:44;11.60;99.90
6520;DHT22;3293;51.690;5.982;2023-10-19T01:54:52;11.60;99.90
6520;DHT22;3293;51.690;5.982;2023-10-19T01:59:58;11.60;99.90
6520;DHT22;3293;51.690;5.982;2023-10-19T02:04:59;11.70;99.90
6520;DHT22;3293;51.690;5.982;2023-10-19T02:10:00;11.70;99.90
6520;DHT22;3293;51.690;5.982;2023-10-19T02:15:01;11.80;99.90
6520;DHT22;3293;51.690;5.982;2023-10-19T02:20:04;11.80;99.90
6520;DHT22;3293;51.690;5.982;2023-10-19T02:25:24;11.80;99.90
6520;DHT22;3293;51.690;5.982;2023-10-19T02:30:28;11.90;99.90
6520;DHT22;3293;51.690;5.982;2023-10-19T02:35:31;11.90;99.90
6520;DHT22;3293;51.690;5.982;2023-10-19T02:40:31;12.00;99.90
6520;DHT22;3293;51.690;5.982;2023-10-19T02:45:31;12.00;99.90
6520;DHT22;3293;51.690;5.982;2023-10-19T02:50:32;12.10;99.90
6520;DHT22;3293;51.690;5.982;2023-10-19T02:55:32;12.20;99.90
6520;DHT22;3293;51.690;5.982;2023-10-19T03:00:32;12.20;99.90
6520;DHT22;3293;51.690;5.982;2023-10-19T03:05:33;12.30;99.90
6520;DHT22;3293;51.690;5.982;2023-10-19T03:10:36;12.30;99.90
6520;DHT22;3293;51.690;5.982;2023-10-19T03:15:42;12.30;99.90
6520;DHT22;3293;51.690;5.982;2023-10-19T03:20:43;12.40;99.90
6520;DHT22;3293;51.690;5.982;2023-10-19T03:25:43;12.40;99.90
6520;DHT22;3293;51.690;5.982;2023-10-19T03:31:15;12.40;99.90
6520;DHT22;3293;51.690;5.982;2023-10-19T03:36:17;12.40;99.90
6520;DHT22;3293;51.690;5.982;2023-10-19T03:41:18;12.50;99.90
6520;DHT22;3293;51.690;5.982;2023-10-19T03:46:21;12.50;99.90
6520;DHT22;3293;51.690;5.982;2023-10-19T03:51:28;12.60;99.90
6520;DHT22;3293;51.690;5.982;2023-10-19T03:56:40;12.60;99.90
6520;DHT22;3293;51.690;5.982;2023-10-19T04:01:41;12.70;99.90
6520;DHT22;3293;51.690;5.982;2023-10-19T04:06:43;12.70;99.90
6520;DHT22;3293;51.690;5.982;2023-10-19T04:11:47;12.70;99.90
6520;DHT22;3293;51.690;5.982;2023-10-19T04:16:51;12.80;99.90
6520;DHT22;3293;51.690;5.982;2023-10-19T04:21:51;12.90;99.90
6520;DHT22;3293;51.690;5.982;2023-10-19T04:26:50;12.90;99.90
6520;DHT22;3293;51.690;5.982;2023-10-19T04:31:51;12.90;99.90
6520;DHT22;3293;51.690;5.982;2023-10-19T04:36:54;13.00;99.90
6520;DHT22;3293;51.690;5.982;2023-10-19T04:41:54;13.00;99.90
6520;DHT22;3293;51.690;5.982;2023-10-19T04:46:55;13.10;99.90
6520;DHT22;3293;51.690;5.982;2023-10-19T04:51:56;13.10;99.90
6520;DHT22;3293;51.690;5.982;2023-10-19T04:56:57;13.10;99.90
6520;DHT22;3293;51.690;5.982;2023-10-19T05:01:57;13.20;99.90
6520;DHT22;3293;51.690;5.982;2023-10-19T05:06:57;13.20;99.90
6520;DHT22;3293;51.690;5.982;2023-10-19T05:11:57;13.10;99.90
6520;DHT22;3293;51.690;5.982;2023-10-19T05:16:57;13.20;99.90
6520;DHT22;3293;51.690;5.982;2023-10-19T05:22:05;13.10;99.90
6520;DHT22;3293;51.690;5.982;2023-10-19T05:27:08;13.10;99.90
6520;DHT22;3293;51.690;5.982;2023-10-19T05:32:09;13.10;99.90
6520;DHT22;3293;51.690;5.982;2023-10-19T05:37:09;13.10;99.90
6520;DHT22;3293;51.690;5.982;2023-10-19T05:42:10;13.10;99.90
6520;DHT22;3293;51.690;5.982;2023-10-19T05:47:10;13.10;99.90
6520;DHT22;3293;51.690;5.982;2023-10-19T05:52:10;13.10;99.90
6520;DHT22;3293;51.690;5.982;2023-10-19T05:57:10;13.10;99.90
6520;DHT22;3293;51.690;5.982;2023-10-19T06:02:10;13.10;99.90
6520;DHT22;3293;51.690;5.982;2023-10-19T06:07:10;13.10;99.90
6520;DHT22;3293;51.690;5.982;2023-10-19T06:12:10;13.10;99.90
6520;DHT22;3293;51.690;5.982;2023-10-19T06:17:10;13.20;99.90
6520;DHT22;3293;51.690;5.982;2023-10-19T06:22:10;13.20;99.90
6520;DHT22;3293;51.690;5.982;2023-10-19T06:27:10;13.20;99.90
6520;DHT22;3293;51.690;5.982;2023-10-19T06:32:10;13.20;99.90
6520;DHT22;3293;51.690;5.982;2023-10-19T06:37:12;13.20;99.90
6520;DHT22;3293;51.690;5.982;2023-10-19T06:42:12;13.20;99.90
6520;DHT22;3293;51.690;5.982;2023-10-19T06:47:14;13.30;99.90
6520;DHT22;3293;51.690;5.982;2023-10-19T06:52:14;13.40;99.90
6520;DHT22;3293;51.690;5.982;2023-10-19T06:57:15;13.40;99.90
6520;DHT22;3293;51.690;5.982;2023-10-19T07:02:16;13.50;99.90
6520;DHT22;3293;51.690;5.982;2023-10-19T07:07:16;13.50;99.90
6520;DHT22;3293;51.690;5.982;2023-10-19T07:12:17;13.50;99.90
6520;DHT22;3293;51.690;5.982;2023-10-19T07:17:18;13.60;99.90
6520;DHT22;3293;51.690;5.982;2023-10-19T07:22:18;13.70;99.90
6520;DHT22;3293;51.690;5.982;2023-10-19T07:27:23;13.80;99.90
6520;DHT22;3293;51.690;5.982;2023-10-19T07:32:25;13.90;99.90
6520;DHT22;3293;51.690;5.982;2023-10-19T07:37:25;14.10;99.90
6520;DHT22;3293;51.690;5.982;2023-10-19T07:42:25;14.20;99.90
6520;DHT22;3293;51.690;5.982;2023-10-19T07:47:26;14.30;99.90
6520;DHT22;3293;51.690;5.982;2023-10-19T07:52:26;14.40;99.90
6520;DHT22;3293;51.690;5.982;2023-10-19T07:57:26;14.50;99.90
6520;DHT22;3293;51.690;5.982;2023-10-19T08:02:26;14.70;99.90
6520;DHT22;3293;51.690;5.982;2023-10-19T08:07:26;14.80;99.90
6520;DHT22;3293;51.690;5.982;2023-10-19T08:12:27;14.80;99.90
6520;DHT22;3293;51.690;5.982;2023-10-19T08:17:29;14.80;99.90
6520;DHT22;3293;51.690;5.982;2023-10-19T08:22:29;14.70;99.90
6520;DHT22;3293;51.690;5.982;2023-10-19T08:27:30;14.80;99.90
6520;DHT22;3293;51.690;5.982;2023-10-19T08:32:33;14.90;99.90
6520;DHT22;3293;51.690;5.982;2023-10-19T08:37:33;15.00;99.90
6520;DHT22;3293;51.690;5.982;2023-10-19T08:42:33;15.20;99.90
6520;DHT22;3293;51.690;5.982;2023-10-19T08:47:43;15.30;99.90
6520;DHT22;3293;51.690;5.982;2023-10-19T08:52:47;15.50;99.90
6520;DHT22;3293;51.690;5.982;2023-10-19T08:57:49;15.60;99.90
6520;DHT22;3293;51.690;5.982;2023-10-19T09:02:51;15.60;99.90
6520;DHT22;3293;51.690;5.982;2023-10-19T09:07:54;15.60;99.90
6520;DHT22;3293;51.690;5.982;2023-10-19T09:13:05;15.50;99.90
6520;DHT22;3293;51.690;5.982;2023-10-19T09:18:15;15.50;99.90
6520;DHT22;3293;51.690;5.982;2023-10-19T09:23:16;15.80;99.90
6520;DHT22;3293;51.690;5.982;2023-10-19T09:28:17;16.30;99.90
6520;DHT22;3293;51.690;5.982;2023-10-19T09:33:19;16.40;99.90
6520;DHT22;3293;51.690;5.982;2023-10-19T09:38:22;16.70;99.90
6520;DHT22;3293;51.690;5.982;2023-10-19T09:43:38;16.70;99.90
6520;DHT22;3293;51.690;5.982;2023-10-19T09:48:50;16.70;99.90
6520;DHT22;3293;51.690;5.982;2023-10-19T09:54:01;16.60;99.90
6520;DHT22;3293;51.690;5.982;2023-10-19T09:59:06;16.60;99.90
6520;DHT22;3293;51.690;5.982;2023-10-19T10:04:30;16.90;99.90
6520;DHT22;3293;51.690;5.982;2023-10-19T10:09:31;17.10;99.90
6520;DHT22;3293;51.690;5.982;2023-10-19T10:15:04;16.90;99.90
6520;DHT22;3293;51.690;5.982;2023-10-19T10:25:29;16.70;99.90
6520;DHT22;3293;51.690;5.982;2023-10-19T10:30:29;16.80;99.90
6520;DHT22;3293;51.690;5.982;2023-10-19T10:40:49;17.30;99.90
6520;DHT22;3293;51.690;5.982;2023-10-19T10:45:50;17.50;99.90
6520;DHT22;3293;51.690;5.982;2023-10-19T10:50:52;17.60;99.90
6520;DHT22;3293;51.690;5.982;2023-10-19T10:55:54;17.70;99.90
6520;DHT22;3293;51.690;5.982;2023-10-19T11:00:55;17.80;99.90
6520;DHT22;3293;51.690;5.982;2023-10-19T11:06:06;18.00;99.90
6520;DHT22;3293;51.690;5.982;2023-10-19T11:11:09;18.20;99.90
6520;DHT22;3293;51.690;5.982;2023-10-19T11:16:22;18.20;99.90
6520;DHT22;3293;51.690;5.982;2023-10-19T11:21:22;18.20;99.90
6520;DHT22;3293;51.690;5.982;2023-10-19T11:26:24;18.30;99.90
6520;DHT22;3293;51.690;5.982;2023-10-19T11:31:24;18.30;99.90
6520;DHT22;3293;51.690;5.982;2023-10-19T11:36:24;18.40;99.90
6520;DHT22;3293;51.690;5.982;2023-10-19T11:41:25;18.60;99.90
6520;DHT22;3293;51.690;5.982;2023-10-19T11:46:25;18.60;99.90
6520;DHT22;3293;51.690;5.982;2023-10-19T11:51:26;18.50;99.90
6520;DHT22;3293;51.690;5.982;2023-10-19T11:56:32;18.20;99.90
6520;DHT22;3293;51.690;5.982;2023-10-19T12:01:32;18.00;99.90
6520;DHT22;3293;51.690;5.982;2023-10-19T12:06:33;17.90;99.90
6520;DHT22;3293;51.690;5.982;2023-10-19T12:11:33;18.10;99.90
6520;DHT22;3293;51.690;5.982;2023-10-19T12:16:33;18.20;99.90
6520;DHT22;3293;51.690;5.982;2023-10-19T12:21:34;18.10;99.90
6520;DHT22;3293;51.690;5.982;2023-10-19T12:26:37;18.00;99.90
6520;DHT22;3293;51.690;5.982;2023-10-19T12:31:39;17.90;99.90
6520;DHT22;3293;51.690;5.982;2023-10-19T12:36:39;17.80;99.90
6520;DHT22;3293;51.690;5.982;2023-10-19T12:41:40;17.70;99.90
6520;DHT22;3293;51.690;5.982;2023-10-19T12:46:41;17.60;99.90
6520;DHT22;3293;51.690;5.982;2023-10-19T12:51:41;17.60;99.90
6520;DHT22;3293;51.690;5.982;2023-10-19T12:56:42;17.50;99.90
6520;DHT22;3293;51.690;5.982;2023-10-19T13:01:42;17.30;99.90
6520;DHT22;3293;51.690;5.982;2023-10-19T13:06:44;17.20;99.90
6520;DHT22;3293;51.690;5.982;2023-10-19T13:11:48;17.00;99.90
6520;DHT22;3293;51.690;5.982;2023-10-19T13:16:52;17.00;99.90
6520;DHT22;3293;51.690;5.982;2023-10-19T13:21:52;16.90;99.90
6520;DHT22;3293;51.690;5.982;2023-10-19T13:26:53;16.90;99.90
6520;DHT22;3293;51.690;5.982;2023-10-19T13:31:53;17.00;99.90
6520;DHT22;3293;51.690;5.982;2023-10-19T13:36:53;17.10;99.90
6520;DHT22;3293;51.690;5.982;2023-10-19T13:41:56;17.20;99.90
6520;DHT22;3293;51.690;5.982;2023-10-19T13:46:58;17.30;99.90
6520;DHT22;3293;51.690;5.982;2023-10-19T13:51:59;17.40;99.90
6520;DHT22;3293;51.690;5.982;2023-10-19T13:56:59;17.40;99.90
6520;DHT22;3293;51.690;5.982;2023-10-19T14:01:59;17.30;99.90
6520;DHT22;3293;51.690;5.982;2023-10-19T14:06:59;17.20;99.90
6520;DHT22;3293;51.690;5.982;2023-10-19T14:11:59;17.20;99.90
6520;DHT22;3293;51.690;5.982;2023-10-19T14:17:02;17.10;99.90
6520;DHT22;3293;51.690;5.982;2023-10-19T14:22:04;17.00;99.90
6520;DHT22;3293;51.690;5.982;2023-10-19T14:27:04;16.80;99.90
6520;DHT22;3293;51.690;5.982;2023-10-19T14:32:04;16.80;99.90
6520;DHT22;3293;51.690;5.982;2023-10-19T14:37:05;16.80;99.90
6520;DHT22;3293;51.690;5.982;2023-10-19T14:42:05;16.80;99.90
6520;DHT22;3293;51.690;5.982;2023-10-19T14:47:05;16.70;99.90
6520;DHT22;3293;51.690;5.982;2023-10-19T14:52:06;16.60;99.90
6520;DHT22;3293;51.690;5.982;2023-10-19T14:57:10;16.50;99.90
6520;DHT22;3293;51.690;5.982;2023-10-19T15:02:10;16.40;99.90
6520;DHT22;3293;51.690;5.982;2023-10-19T15:07:12;16.40;99.90
6520;DHT22;3293;51.690;5.982;2023-10-19T15:12:12;16.30;99.90
6520;DHT22;3293;51.690;5.982;2023-10-19T15:17:13;16.20;99.90
6520;DHT22;3293;51.690;5.982;2023-10-19T15:22:13;16.20;99.90
6520;DHT22;3293;51.690;5.982;2023-10-19T15:27:16;16.30;99.90
6520;DHT22;3293;51.690;5.982;2023-10-19T15:32:18;16.40;99.90
6520;DHT22;3293;51.690;5.982;2023-10-19T15:37:20;16.50;99.90
6520;DHT22;3293;51.690;5.982;2023-10-19T15:42:21;16.50;99.90
6520;DHT22;3293;51.690;5.982;2023-10-19T15:47:22;16.40;99.90
6520;DHT22;3293;51.690;5.982;2023-10-19T15:52:25;16.30;99.90
6520;DHT22;3293;51.690;5.982;2023-10-19T15:57:27;16.10;99.90
6520;DHT22;3293;51.690;5.982;2023-10-19T16:02:27;16.00;99.90
6520;DHT22;3293;51.690;5.982;2023-10-19T16:07:28;16.00;99.90
6520;DHT22;3293;51.690;5.982;2023-10-19T16:12:28;16.00;99.90
6520;DHT22;3293;51.690;5.982;2023-10-19T16:17:31;15.90;99.90
6520;DHT22;3293;51.690;5.982;2023-10-19T16:22:30;15.80;99.90
6520;DHT22;3293;51.690;5.982;2023-10-19T16:27:31;15.60;99.90
6520;DHT22;3293;51.690;5.982;2023-10-19T16:32:32;15.60;99.90
6520;DHT22;3293;51.690;5.982;2023-10-19T16:37:36;15.50;99.90
6520;DHT22;3293;51.690;5.982;2023-10-19T16:42:36;15.40;99.90
6520;DHT22;3293;51.690;5.982;2023-10-19T16:47:38;15.30;99.90
6520;DHT22;3293;51.690;5.982;2023-10-19T16:52:38;15.20;99.90
6520;DHT22;3293;51.690;5.982;2023-10-19T16:57:39;15.20;99.90
6520;DHT22;3293;51.690;5.982;2023-10-19T17:02:39;15.10;99.90
6520;DHT22;3293;51.690;5.982;2023-10-19T17:07:41;15.20;99.90
6520;DHT22;3293;51.690;5.982;2023-10-19T17:12:41;15.10;99.90
6520;DHT22;3293;51.690;5.982;2023-10-19T17:17:42;15.10;99.90
6520;DHT22;3293;51.690;5.982;2023-10-19T17:22:44;15.10;99.90
6520;DHT22;3293;51.690;5.982;2023-10-19T17:27:44;15.10;99.90
6520;DHT22;3293;51.690;5.982;2023-10-19T17:32:44;15.10;99.90
6520;DHT22;3293;51.690;5.982;2023-10-19T17:37:45;15.20;99.90
6520;DHT22;3293;51.690;5.982;2023-10-19T17:42:45;15.10;99.90
6520;DHT22;3293;51.690;5.982;2023-10-19T17:47:46;15.10;99.90
6520;DHT22;3293;51.690;5.982;2023-10-19T17:52:46;15.10;99.90
6520;DHT22;3293;51.690;5.982;2023-10-19T17:57:49;15.10;99.90
6520;DHT22;3293;51.690;5.982;2023-10-19T18:02:50;15.10;99.90
6520;DHT22;3293;51.690;5.982;2023-10-19T18:07:51;15.00;99.90
6520;DHT22;3293;51.690;5.982;2023-10-19T18:12:52;15.00;99.90
6520;DHT22;3293;51.690;5.982;2023-10-19T18:17:53;14.90;99.90
6520;DHT22;3293;51.690;5.982;2023-10-19T18:22:55;14.90;99.90
6520;DHT22;3293;51.690;5.982;2023-10-19T18:27:56;14.80;99.90
6520;DHT22;3293;51.690;5.982;2023-10-19T18:32:56;14.70;99.90
6520;DHT22;3293;51.690;5.982;2023-10-19T18:37:56;14.70;99.90
6520;DHT22;3293;51.690;5.982;2023-10-19T18:42:56;14.60;99.90
6520;DHT22;3293;51.690;5.982;2023-10-19T18:47:58;14.60;99.90
6520;DHT22;3293;51.690;5.982;2023-10-19T18:52:59;14.50;99.90
6520;DHT22;3293;51.690;5.982;2023-10-19T18:57:59;14.60;99.90
6520;DHT22;3293;51.690;5.982;2023-10-19T19:03:01;14.60;99.90
6520;DHT22;3293;51.690;5.982;2023-10-19T19:08:01;14.50;99.90
6520;DHT22;3293;51.690;5.982;2023-10-19T19:13:02;14.50;99.90
6520;DHT22;3293;51.690;5.982;2023-10-19T19:18:03;14.50;99.90
6520;DHT22;3293;51.690;5.982;2023-10-19T19:23:04;14.60;99.90
6520;DHT22;3293;51.690;5.982;2023-10-19T19:28:06;14.50;99.90
6520;DHT22;3293;51.690;5.982;2023-10-19T19:33:08;14.50;99.90
6520;DHT22;3293;51.690;5.982;2023-10-19T19:38:09;14.50;99.90
6520;DHT22;3293;51.690;5.982;2023-10-19T19:43:09;14.50;99.90
6520;DHT22;3293;51.690;5.982;2023-10-19T19:48:10;14.50;99.90
6520;DHT22;3293;51.690;5.982;2023-10-19T19:53:12;14.50;99.90
6520;DHT22;3293;51.690;5.982;2023-10-19T19:58:17;14.50;99.90
6520;DHT22;3293;51.690;5.982;2023-10-19T20:03:20;14.50;99.90
6520;DHT22;3293;51.690;5.982;2023-10-19T20:08:21;14.40;99.90
6520;DHT22;3293;51.690;5.982;2023-10-19T20:13:21;14.40;99.90
6520;DHT22;3293;51.690;5.982;2023-10-19T20:18:21;14.40;99.90
6520;DHT22;3293;51.690;5.982;2023-10-19T20:23:21;14.50;99.90
6520;DHT22;3293;51.690;5.982;2023-10-19T20:28:26;14.40;99.90
6520;DHT22;3293;51.690;5.982;2023-10-19T20:33:28;14.40;99.90
6520;DHT22;3293;51.690;5.982;2023-10-19T20:38:29;14.50;99.90
6520;DHT22;3293;51.690;5.982;2023-10-19T20:43:31;14.40;99.90
6520;DHT22;3293;51.690;5.982;2023-10-19T20:48:32;14.40;99.90
6520;DHT22;3293;51.690;5.982;2023-10-19T20:53:32;14.40;99.90
6520;DHT22;3293;51.690;5.982;2023-10-19T20:58:32;14.50;99.90
6520;DHT22;3293;51.690;5.982;2023-10-19T21:03:33;14.50;99.90
6520;DHT22;3293;51.690;5.982;2023-10-19T21:08:34;14.40;99.90
6520;DHT22;3293;51.690;5.982;2023-10-19T21:13:34;14.50;99.90
6520;DHT22;3293;51.690;5.982;2023-10-19T21:18:39;14.50;99.90
6520;DHT22;3293;51.690;5.982;2023-10-19T21:23:40;14.40;99.90
6520;DHT22;3293;51.690;5.982;2023-10-19T21:28:40;14.40;99.90
6520;DHT22;3293;51.690;5.982;2023-10-19T21:33:41;14.40;99.90
6520;DHT22;3293;51.690;5.982;2023-10-19T21:38:40;14.50;99.90
6520;DHT22;3293;51.690;5.982;2023-10-19T21:43:43;14.40;99.90
6520;DHT22;3293;51.690;5.982;2023-10-19T21:48:44;14.40;99.90
6520;DHT22;3293;51.690;5.982;2023-10-19T21:53:46;14.40;99.90
6520;DHT22;3293;51.690;5.982;2023-10-19T21:58:47;14.40;99.90
6520;DHT22;3293;51.690;5.982;2023-10-19T22:03:47;14.40;99.90
6520;DHT22;3293;51.690;5.982;2023-10-19T22:08:47;14.40;99.90
6520;DHT22;3293;51.690;5.982;2023-10-19T22:13:47;14.40;99.90
6520;DHT22;3293;51.690;5.982;2023-10-19T22:18:49;14.40;99.90
6520;DHT22;3293;51.690;5.982;2023-10-19T22:23:51;14.40;99.90
6520;DHT22;3293;51.690;5.982;2023-10-19T22:28:51;14.40;99.90
6520;DHT22;3293;51.690;5.982;2023-10-19T22:33:53;14.40;99.90
6520;DHT22;3293;51.690;5.982;2023-10-19T22:38:53;14.50;99.90
6520;DHT22;3293;51.690;5.982;2023-10-19T22:43:55;14.50;99.90
6520;DHT22;3293;51.690;5.982;2023-10-19T22:48:55;14.50;99.90
6520;DHT22;3293;51.690;5.982;2023-10-19T22:53:57;14.50;99.90
6520;DHT22;3293;51.690;5.982;2023-10-19T22:58:57;14.60;99.90
6520;DHT22;3293;51.690;5.982;2023-10-19T23:03:57;14.60;99.90
6520;DHT22;3293;51.690;5.982;2023-10-19T23:08:59;14.50;99.90
6520;DHT22;3293;51.690;5.982;2023-10-19T23:14:00;14.60;99.90
6520;DHT22;3293;51.690;5.982;2023-10-19T23:19:03;14.60;99.90
6520;DHT22;3293;51.690;5.982;2023-10-19T23:24:04;14.60;99.90
6520;DHT22;3293;51.690;5.982;2023-10-19T23:29:05;14.50;99.90
6520;DHT22;3293;51.690;5.982;2023-10-19T23:34:10;14.50;99.90
6520;DHT22;3293;51.690;5.982;2023-10-19T23:39:12;14.50;99.90
6520;DHT22;3293;51.690;5.982;2023-10-19T23:44:12;14.50;99.90
6520;DHT22;3293;51.690;5.982;2023-10-19T23:49:12;14.50;99.90
6520;DHT22;3293;51.690;5.982;2023-10-19T23:54:12;14.50;99.90
6520;DHT22;3293;51.690;5.982;2023-10-19T23:59:12;14.50;99.90
